createdAt,value
2016-09-01T00:00:38.506Z,744.93
2016-09-01T00:01:38.489Z,745.03
2016-09-01T00:02:38.486Z,745.06
2016-09-01T00:03:38.477Z,745.05
2016-09-01T00:04:38.467Z,745.07
2016-09-01T00:05:38.457Z,745
2016-09-01T00:06:38.440Z,744.93
2016-09-01T00:07:38.430Z,744.95
2016-09-01T00:08:38.428Z,744.99
2016-09-01T00:09:38.418Z,744.99
2016-09-01T00:10:38.408Z,744.99
2016-09-01T00:11:38.394Z,744.99
2016-09-01T00:12:38.382Z,744.96
2016-09-01T00:13:38.374Z,745.01
2016-09-01T00:14:38.371Z,744.96
2016-09-01T00:15:38.355Z,744.98
2016-09-01T00:16:38.350Z,744.94
2016-09-01T00:17:38.334Z,745.06
2016-09-01T00:18:38.324Z,744.99
2016-09-01T00:19:38.315Z,745.03
2016-09-01T00:20:38.312Z,745.02
2016-09-01T00:21:38.295Z,745.03
2016-09-01T00:22:38.293Z,744.96
2016-09-01T00:23:38.287Z,744.99
2016-09-01T00:24:38.266Z,745
2016-09-01T00:25:38.263Z,744.94
2016-09-01T00:26:38.254Z,745
2016-09-01T00:27:38.244Z,745.05
2016-09-01T00:28:38.235Z,744.99
2016-09-01T00:29:38.225Z,745.02
2016-09-01T00:30:38.215Z,745.01
2016-09-01T00:31:38.209Z,745.08
2016-09-01T00:32:38.190Z,745.03
2016-09-01T00:33:38.188Z,745.01
2016-09-01T00:34:38.177Z,745
2016-09-01T00:35:38.168Z,745.01
2016-09-01T00:36:38.153Z,745.03
2016-09-01T00:37:38.144Z,745.06
2016-09-01T00:38:38.134Z,745.03
2016-09-01T00:39:38.131Z,745.02
2016-09-01T00:40:38.115Z,745.05
2016-09-01T00:41:38.111Z,745.04
2016-09-01T00:42:38.104Z,745.09
2016-09-01T00:43:38.088Z,745.04
2016-09-01T00:44:38.079Z,745.03
2016-09-01T00:45:38.076Z,745.01
2016-09-01T00:46:38.068Z,744.99
2016-09-01T00:47:38.051Z,745.02
2016-09-01T00:48:38.049Z,745.04
2016-09-01T00:49:38.040Z,745.04
2016-09-01T00:50:38.024Z,745.04
2016-09-01T00:51:38.016Z,745.03
2016-09-01T00:52:38.013Z,745.03
2016-09-01T00:53:37.998Z,745.05
2016-09-01T00:54:37.999Z,745.03
2016-09-01T00:55:37.979Z,745.02
2016-09-01T00:56:37.977Z,744.99
2016-09-01T00:57:37.969Z,745
2016-09-01T00:58:37.960Z,744.98
2016-09-01T00:59:37.945Z,744.99
2016-09-01T01:00:37.942Z,745.01
2016-09-01T01:01:37.926Z,745.01
2016-09-01T01:02:37.918Z,745.04
2016-09-01T01:03:37.908Z,745.02
2016-09-01T01:04:37.904Z,744.98
2016-09-01T01:05:37.896Z,745.01
2016-09-01T01:06:37.888Z,744.97
2016-09-01T01:07:37.871Z,745.01
2016-09-01T01:08:37.861Z,744.98
2016-09-01T01:09:37.859Z,745
2016-09-01T01:10:37.843Z,744.97
2016-09-01T01:11:37.841Z,745.07
2016-09-01T01:12:37.824Z,744.97
2016-09-01T01:13:37.815Z,745.02
2016-09-01T01:14:37.812Z,745.01
2016-09-01T01:15:37.796Z,744.98
2016-09-01T01:16:37.794Z,744.9
2016-09-01T01:17:37.785Z,744.99
2016-09-01T01:18:37.771Z,744.97
2016-09-01T01:19:37.764Z,744.96
2016-09-01T01:20:37.755Z,744.96
2016-09-01T01:21:37.739Z,744.95
2016-09-01T01:22:37.737Z,744.91
2016-09-01T01:23:37.720Z,744.95
2016-09-01T01:24:37.711Z,744.95
2016-09-01T01:25:37.701Z,744.96
2016-09-01T01:26:37.699Z,744.94
2016-09-01T01:27:37.688Z,744.96
2016-09-01T01:28:37.675Z,744.96
2016-09-01T01:29:37.670Z,744.93
2016-09-01T01:30:37.662Z,744.97
2016-09-01T01:31:37.652Z,744.99
2016-09-01T01:32:37.643Z,744.98
2016-09-01T01:33:37.634Z,745.01
2016-09-01T01:34:37.626Z,745
2016-09-01T01:35:37.616Z,744.97
2016-09-01T01:36:37.602Z,745.01
2016-09-01T01:37:37.598Z,745.04
2016-09-01T01:38:37.583Z,745.05
2016-09-01T01:39:37.573Z,745.06
2016-09-01T01:40:37.569Z,745.02
2016-09-01T01:41:37.562Z,744.99
2016-09-01T01:42:37.545Z,744.93
2016-09-01T01:43:37.542Z,744.94
2016-09-01T01:44:37.527Z,744.93
2016-09-01T01:45:37.525Z,744.9
2016-09-01T01:46:37.516Z,744.9
2016-09-01T01:47:37.511Z,744.9
2016-09-01T01:48:37.492Z,744.87
2016-09-01T01:49:37.490Z,744.85
2016-09-01T01:50:37.474Z,744.82
2016-09-01T01:51:37.472Z,744.86
2016-09-01T01:52:37.461Z,744.82
2016-09-01T01:53:37.456Z,744.86
2016-09-01T01:54:37.439Z,744.81
2016-09-01T01:55:37.438Z,744.81
2016-09-01T01:56:37.425Z,744.86
2016-09-01T01:57:37.421Z,744.8
2016-09-01T01:58:37.413Z,744.78
2016-09-01T01:59:37.399Z,744.76
2016-09-01T02:00:37.392Z,744.78
2016-09-01T02:01:37.389Z,744.79
2016-09-01T02:02:37.374Z,744.76
2016-09-01T02:03:37.366Z,744.78
2016-09-01T02:04:37.364Z,744.78
2016-09-01T02:05:37.347Z,744.75
2016-09-01T02:06:37.347Z,744.76
2016-09-01T02:07:37.334Z,744.74
2016-09-01T02:08:37.331Z,744.73
2016-09-01T02:09:37.323Z,744.74
2016-09-01T02:10:37.314Z,744.75
2016-09-01T02:11:37.302Z,744.73
2016-09-01T02:12:37.299Z,744.79
2016-09-01T02:13:37.289Z,744.79
2016-09-01T02:14:37.274Z,744.78
2016-09-01T02:15:37.272Z,744.78
2016-09-01T02:16:37.263Z,744.77
2016-09-01T02:17:37.256Z,744.8
2016-09-01T02:18:37.242Z,744.86
2016-09-01T02:19:37.240Z,744.86
2016-09-01T02:20:37.231Z,744.84
2016-09-01T02:21:37.215Z,744.83
2016-09-01T02:22:37.207Z,744.83
2016-09-01T02:23:37.208Z,744.83
2016-09-01T02:24:37.197Z,744.81
2016-09-01T02:25:37.185Z,744.85
2016-09-01T02:26:37.181Z,744.79
2016-09-01T02:27:37.173Z,744.8
2016-09-01T02:28:37.165Z,744.79
2016-09-01T02:29:37.151Z,744.8
2016-09-01T02:30:37.149Z,744.78
2016-09-01T02:31:37.134Z,744.81
2016-09-01T02:32:37.126Z,744.8
2016-09-01T02:33:37.136Z,744.82
2016-09-01T02:34:37.116Z,744.78
2016-09-01T02:35:37.135Z,744.82
2016-09-01T02:36:37.093Z,744.78
2016-09-01T02:37:37.093Z,744.78
2016-09-01T02:38:37.085Z,744.81
2016-09-01T02:39:37.077Z,744.78
2016-09-01T02:40:37.063Z,744.78
2016-09-01T02:41:37.062Z,744.78
2016-09-01T02:42:37.063Z,744.78
2016-09-01T02:43:37.046Z,744.76
2016-09-01T02:44:37.033Z,744.74
2016-09-01T02:45:37.031Z,744.77
2016-09-01T02:46:37.022Z,744.75
2016-09-01T02:47:37.015Z,744.76
2016-09-01T02:48:37.001Z,744.76
2016-09-01T02:49:36.993Z,744.76
2016-09-01T02:50:36.992Z,744.79
2016-09-01T02:51:36.977Z,744.8
2016-09-01T02:52:36.970Z,744.78
2016-09-01T02:53:36.962Z,744.78
2016-09-01T02:54:36.954Z,744.79
2016-09-01T02:55:36.953Z,744.79
2016-09-01T02:56:36.945Z,744.8
2016-09-01T02:57:36.936Z,744.77
2016-09-01T02:58:36.928Z,744.73
2016-09-01T02:59:36.913Z,744.72
2016-09-01T03:00:36.905Z,744.68
2016-09-01T03:01:36.897Z,744.7
2016-09-01T03:02:36.888Z,744.7
2016-09-01T03:03:36.880Z,744.76
2016-09-01T03:04:36.870Z,744.74
2016-09-01T03:05:36.869Z,744.69
2016-09-01T03:06:36.861Z,744.7
2016-09-01T03:07:36.847Z,744.71
2016-09-01T03:08:36.844Z,744.68
2016-09-01T03:09:36.831Z,744.72
2016-09-01T03:10:36.822Z,744.72
2016-09-01T03:11:36.812Z,744.7
2016-09-01T03:12:36.804Z,744.69
2016-09-01T03:13:36.797Z,744.69
2016-09-01T03:14:36.788Z,744.7
2016-09-01T03:15:36.787Z,744.66
2016-09-01T03:16:36.779Z,744.68
2016-09-01T03:17:36.770Z,744.64
2016-09-01T03:18:36.761Z,744.65
2016-09-01T03:19:36.747Z,744.63
2016-09-01T03:20:36.746Z,744.65
2016-09-01T03:21:36.738Z,744.65
2016-09-01T03:22:36.723Z,744.64
2016-09-01T03:23:36.715Z,744.64
2016-09-01T03:24:36.713Z,744.65
2016-09-01T03:25:36.698Z,744.64
2016-09-01T03:26:36.689Z,744.61
2016-09-01T03:27:36.688Z,744.65
2016-09-01T03:28:36.674Z,744.62
2016-09-01T03:29:36.665Z,744.64
2016-09-01T03:30:36.663Z,744.63
2016-09-01T03:31:36.647Z,744.59
2016-09-01T03:32:36.641Z,744.6
2016-09-01T03:33:36.632Z,744.55
2016-09-01T03:34:36.629Z,744.56
2016-09-01T03:35:36.622Z,744.55
2016-09-01T03:36:36.614Z,744.56
2016-09-01T03:37:36.598Z,744.56
2016-09-01T03:38:36.600Z,744.63
2016-09-01T03:39:36.588Z,744.6
2016-09-01T03:40:36.572Z,744.61
2016-09-01T03:41:36.571Z,744.57
2016-09-01T03:42:36.557Z,744.56
2016-09-01T03:43:36.548Z,744.59
2016-09-01T03:44:36.538Z,744.6
2016-09-01T03:45:36.531Z,744.59
2016-09-01T03:46:36.529Z,744.62
2016-09-01T03:47:36.514Z,744.61
2016-09-01T03:48:36.512Z,744.58
2016-09-01T03:49:36.497Z,744.58
2016-09-01T03:50:36.490Z,744.58
2016-09-01T03:51:36.487Z,744.6
2016-09-01T03:52:36.471Z,744.52
2016-09-01T03:53:36.465Z,744.58
2016-09-01T03:54:36.456Z,744.55
2016-09-01T03:55:36.447Z,744.54
2016-09-01T03:56:36.446Z,744.58
2016-09-01T03:57:36.431Z,744.58
2016-09-01T03:58:36.430Z,744.59
2016-09-01T03:59:36.421Z,744.59
2016-09-01T04:00:36.406Z,744.52
2016-09-01T04:01:36.404Z,744.58
2016-09-01T04:02:36.388Z,744.55
2016-09-01T04:03:36.381Z,744.58
2016-09-01T04:04:36.378Z,744.57
2016-09-01T04:05:36.365Z,744.58
2016-09-01T04:06:36.362Z,744.57
2016-09-01T04:07:36.347Z,744.56
2016-09-01T04:08:36.346Z,744.54
2016-09-01T04:09:36.338Z,744.57
2016-09-01T04:10:36.321Z,744.58
2016-09-01T04:11:36.314Z,744.57
2016-09-01T04:12:36.313Z,744.56
2016-09-01T04:13:36.296Z,744.57
2016-09-01T04:14:36.296Z,744.58
2016-09-01T04:15:36.289Z,744.57
2016-09-01T04:16:36.274Z,744.58
2016-09-01T04:17:36.271Z,744.59
2016-09-01T04:18:36.256Z,744.6
2016-09-01T04:19:36.251Z,744.6
2016-09-01T04:20:36.330Z,744.64
2016-09-01T04:21:36.233Z,744.62
2016-09-01T04:22:36.224Z,744.59
2016-09-01T04:23:36.224Z,744.61
2016-09-01T04:24:36.208Z,744.57
2016-09-01T04:25:36.212Z,744.61
2016-09-01T04:26:36.199Z,744.59
2016-09-01T04:27:36.196Z,744.61
2016-09-01T04:28:36.182Z,744.62
2016-09-01T04:29:36.167Z,744.59
2016-09-01T04:30:36.166Z,744.57
2016-09-01T04:31:36.158Z,744.56
2016-09-01T04:32:36.150Z,744.61
2016-09-01T04:33:36.142Z,744.57
2016-09-01T04:34:36.133Z,744.63
2016-09-01T04:35:36.160Z,744.6
2016-09-01T04:36:36.109Z,744.6
2016-09-01T04:37:36.108Z,744.59
2016-09-01T04:38:36.100Z,744.58
2016-09-01T04:39:36.285Z,744.58
2016-09-01T04:40:36.076Z,744.63
2016-09-01T04:41:36.068Z,744.63
2016-09-01T04:42:36.066Z,744.65
2016-09-01T04:43:36.058Z,744.66
2016-09-01T04:44:36.049Z,744.68
2016-09-01T04:45:36.033Z,744.68
2016-09-01T04:46:36.024Z,744.69
2016-09-01T04:47:36.023Z,744.71
2016-09-01T04:48:36.007Z,744.71
2016-09-01T04:49:36.006Z,744.75
2016-09-01T04:50:35.996Z,744.77
2016-09-01T04:51:35.980Z,744.76
2016-09-01T04:52:35.973Z,744.78
2016-09-01T04:53:35.963Z,744.76
2016-09-01T04:54:35.962Z,744.78
2016-09-01T04:55:35.947Z,744.75
2016-09-01T04:56:35.945Z,744.77
2016-09-01T04:57:35.929Z,744.82
2016-09-01T04:58:35.928Z,744.84
2016-09-01T04:59:35.920Z,744.8
2016-09-01T05:00:35.917Z,744.83
2016-09-01T05:01:35.903Z,744.8
2016-09-01T05:02:35.888Z,744.79
2016-09-01T05:03:35.881Z,744.84
2016-09-01T05:04:35.872Z,744.8
2016-09-01T05:05:35.871Z,744.83
2016-09-01T05:06:35.857Z,744.81
2016-09-01T05:07:35.849Z,744.81
2016-09-01T05:08:35.847Z,744.78
2016-09-01T05:09:35.832Z,744.81
2016-09-01T05:10:35.833Z,744.77
2016-09-01T05:11:35.826Z,744.78
2016-09-01T05:12:35.809Z,744.76
2016-09-01T05:13:35.803Z,744.81
2016-09-01T05:14:35.803Z,744.76
2016-09-01T05:15:35.788Z,744.77
2016-09-01T05:16:35.781Z,744.81
2016-09-01T05:17:35.780Z,744.77
2016-09-01T05:18:35.773Z,744.85
2016-09-01T05:19:35.764Z,744.83
2016-09-01T05:20:35.751Z,744.84
2016-09-01T05:21:35.744Z,744.83
2016-09-01T05:22:35.736Z,744.82
2016-09-01T05:23:35.729Z,744.84
2016-09-01T05:24:35.727Z,744.86
2016-09-01T05:25:35.714Z,744.8
2016-09-01T05:26:35.707Z,744.83
2016-09-01T05:27:35.706Z,744.82
2016-09-01T05:28:35.693Z,744.81
2016-09-01T05:29:35.693Z,744.83
2016-09-01T05:30:35.690Z,744.82
2016-09-01T05:31:35.670Z,744.81
2016-09-01T05:32:35.664Z,744.83
2016-09-01T05:33:35.656Z,744.85
2016-09-01T05:34:35.649Z,744.82
2016-09-01T05:35:35.650Z,744.82
2016-09-01T05:36:35.643Z,744.84
2016-09-01T05:37:35.629Z,744.81
2016-09-01T05:38:35.621Z,744.81
2016-09-01T05:39:35.616Z,744.83
2016-09-01T05:40:35.608Z,744.86
2016-09-01T05:41:35.601Z,744.8
2016-09-01T05:42:35.600Z,744.82
2016-09-01T05:43:35.587Z,744.78
2016-09-01T05:44:35.580Z,744.82
2016-09-01T05:45:35.572Z,744.82
2016-09-01T05:46:35.566Z,744.83
2016-09-01T05:47:35.559Z,744.81
2016-09-01T05:48:35.558Z,744.8
2016-09-01T05:49:35.545Z,744.79
2016-09-01T05:50:35.540Z,744.83
2016-09-01T05:51:35.539Z,744.81
2016-09-01T05:52:35.523Z,744.81
2016-09-01T05:53:35.523Z,744.79
2016-09-01T05:54:35.517Z,744.82
2016-09-01T05:55:35.503Z,744.83
2016-09-01T05:56:35.494Z,744.82
2016-09-01T05:57:35.494Z,744.83
2016-09-01T05:58:35.478Z,744.82
2016-09-01T05:59:35.470Z,744.82
2016-09-01T06:00:35.463Z,744.86
2016-09-01T06:01:35.456Z,744.83
2016-09-01T06:02:35.455Z,744.83
2016-09-01T06:03:35.446Z,744.83
2016-09-01T06:04:35.438Z,744.83
2016-09-01T06:05:35.424Z,744.85
2016-09-01T06:06:35.423Z,744.84
2016-09-01T06:07:35.416Z,744.85
2016-09-01T06:08:35.406Z,744.83
2016-09-01T06:09:35.397Z,744.86
2016-09-01T06:10:35.393Z,744.92
2016-09-01T06:11:35.381Z,744.88
2016-09-01T06:12:35.372Z,744.89
2016-09-01T06:13:35.371Z,744.87
2016-09-01T06:14:35.355Z,744.87
2016-09-01T06:15:35.347Z,744.87
2016-09-01T06:16:35.339Z,744.85
2016-09-01T06:17:35.331Z,744.88
2016-09-01T06:18:35.323Z,744.86
2016-09-01T06:19:35.311Z,744.86
2016-09-01T06:20:35.306Z,744.9
2016-09-01T06:21:35.640Z,744.86
2016-09-01T06:22:35.283Z,744.9
2016-09-01T06:23:35.281Z,744.88
2016-09-01T06:24:35.272Z,744.88
2016-09-01T06:25:35.257Z,744.93
2016-09-01T06:26:35.249Z,744.88
2016-09-01T06:27:35.241Z,744.88
2016-09-01T06:28:35.233Z,744.87
2016-09-01T06:29:35.230Z,744.92
2016-09-01T06:30:35.216Z,744.93
2016-09-01T06:31:35.215Z,744.95
2016-09-01T06:32:35.206Z,745.01
2016-09-01T06:33:35.190Z,745.02
2016-09-01T06:34:35.183Z,744.99
2016-09-01T06:35:35.182Z,745.02
2016-09-01T06:36:35.172Z,745.08
2016-09-01T06:37:35.159Z,745.04
2016-09-01T06:38:35.152Z,745.03
2016-09-01T06:39:35.145Z,745.01
2016-09-01T06:40:35.133Z,745.01
2016-09-01T06:41:35.129Z,745.13
2016-09-01T06:42:35.117Z,745.11
2016-09-01T06:43:35.115Z,745.08
2016-09-01T06:44:35.107Z,745.11
2016-09-01T06:45:35.098Z,745.12
2016-09-01T06:46:35.090Z,745.14
2016-09-01T06:47:35.072Z,745.17
2016-09-01T06:48:35.071Z,745.18
2016-09-01T06:49:35.062Z,745.17
2016-09-01T06:50:35.053Z,745.17
2016-09-01T06:51:35.037Z,745.21
2016-09-01T06:52:35.028Z,745.2
2016-09-01T06:53:35.020Z,745.18
2016-09-01T06:54:35.017Z,745.14
2016-09-01T06:55:35.008Z,745.22
2016-09-01T06:56:35.000Z,745.23
2016-09-01T06:57:34.983Z,745.22
2016-09-01T06:58:34.975Z,745.21
2016-09-01T06:59:34.966Z,745.22
2016-09-01T07:00:34.957Z,745.17
2016-09-01T07:01:34.953Z,745.22
2016-09-01T07:02:34.944Z,745.2
2016-09-01T07:03:34.935Z,745.2
2016-09-01T07:04:34.926Z,745.18
2016-09-01T07:05:34.916Z,745.17
2016-09-01T07:06:34.907Z,745.2
2016-09-01T07:07:34.892Z,745.26
2016-09-01T07:08:34.889Z,745.21
2016-09-01T07:09:34.872Z,745.23
2016-09-01T07:10:34.869Z,745.25
2016-09-01T07:11:34.854Z,745.28
2016-09-01T07:12:34.843Z,745.27
2016-09-01T07:13:34.834Z,745.21
2016-09-01T07:14:34.826Z,745.26
2016-09-01T07:15:34.823Z,745.27
2016-09-01T07:16:34.806Z,745.27
2016-09-01T07:17:34.796Z,745.32
2016-09-01T07:18:34.793Z,745.37
2016-09-01T07:19:34.777Z,745.37
2016-09-01T07:20:34.774Z,745.34
2016-09-01T07:21:34.765Z,745.35
2016-09-01T07:22:34.747Z,745.36
2016-09-01T07:23:35.200Z,745.38
2016-09-01T07:24:34.735Z,745.38
2016-09-01T07:25:34.718Z,745.42
2016-09-01T07:26:34.716Z,745.42
2016-09-01T07:27:34.699Z,745.42
2016-09-01T07:28:34.690Z,745.42
2016-09-01T07:29:34.691Z,745.41
2016-09-01T07:30:34.670Z,745.42
2016-09-01T07:31:34.667Z,745.4
2016-09-01T07:32:34.652Z,745.43
2016-09-01T07:33:34.641Z,745.43
2016-09-01T07:34:34.631Z,745.42
2016-09-01T07:35:34.621Z,745.46
2016-09-01T07:36:34.612Z,745.41
2016-09-01T07:37:34.609Z,745.4
2016-09-01T07:38:34.590Z,745.44
2016-09-01T07:39:34.581Z,745.38
2016-09-01T07:40:34.579Z,745.38
2016-09-01T07:41:34.568Z,745.51
2016-09-01T07:42:34.558Z,745.51
2016-09-01T07:43:34.943Z,745.48
2016-09-01T07:44:34.537Z,745.47
2016-09-01T07:45:34.527Z,745.6
2016-09-01T07:46:34.511Z,745.55
2016-09-01T07:47:34.506Z,745.52
2016-09-01T07:48:34.491Z,745.52
2016-09-01T07:49:34.479Z,745.55
2016-09-01T07:50:34.475Z,745.57
2016-09-01T07:51:34.466Z,745.61
2016-09-01T07:52:34.461Z,745.61
2016-09-01T07:53:34.440Z,745.56
2016-09-01T07:54:34.430Z,745.61
2016-09-01T07:55:34.573Z,745.53
2016-09-01T07:56:34.408Z,745.56
2016-09-01T07:57:34.405Z,745.56
2016-09-01T07:58:34.387Z,745.6
2016-09-01T07:59:34.379Z,745.62
2016-09-01T08:00:34.367Z,745.64
2016-09-01T08:01:34.357Z,745.59
2016-09-01T08:02:34.354Z,745.65
2016-09-01T08:03:34.342Z,745.6
2016-09-01T08:04:34.325Z,745.65
2016-09-01T08:05:34.322Z,745.68
2016-09-01T08:06:34.313Z,745.69
2016-09-01T08:07:34.300Z,745.68
2016-09-01T08:08:34.290Z,745.71
2016-09-01T08:09:34.281Z,745.73
2016-09-01T08:10:34.271Z,745.7
2016-09-01T08:11:34.252Z,745.77
2016-09-01T08:12:34.249Z,745.75
2016-09-01T08:13:34.231Z,745.75
2016-09-01T08:14:34.228Z,745.74
2016-09-01T08:15:34.217Z,745.73
2016-09-01T08:16:34.208Z,745.77
2016-09-01T08:17:34.198Z,745.74
2016-09-01T08:18:34.186Z,745.76
2016-09-01T08:19:34.177Z,745.78
2016-09-01T08:20:34.167Z,745.8
2016-09-01T08:21:34.154Z,745.7
2016-09-01T08:22:34.147Z,745.74
2016-09-01T08:23:34.137Z,745.72
2016-09-01T08:24:34.119Z,745.75
2016-09-01T08:25:34.110Z,745.71
2016-09-01T08:26:34.099Z,745.71
2016-09-01T08:27:34.091Z,745.75
2016-09-01T08:28:34.081Z,745.68
2016-09-01T08:29:34.071Z,745.77
2016-09-01T08:30:34.067Z,745.72
2016-09-01T08:31:34.050Z,745.75
2016-09-01T08:32:34.052Z,745.76
2016-09-01T08:33:34.037Z,745.77
2016-09-01T08:34:34.026Z,745.78
2016-09-01T08:35:34.017Z,745.77
2016-09-01T08:36:34.008Z,745.78
2016-09-01T08:37:33.992Z,745.77
2016-09-01T08:38:33.988Z,745.78
2016-09-01T08:39:33.978Z,745.82
2016-09-01T08:40:33.967Z,745.85
2016-09-01T08:41:33.958Z,745.79
2016-09-01T08:42:33.947Z,745.82
2016-09-01T08:43:33.931Z,745.83
2016-09-01T08:44:33.928Z,745.81
2016-09-01T08:45:33.919Z,745.84
2016-09-01T08:46:33.904Z,745.8
2016-09-01T08:47:33.900Z,745.85
2016-09-01T08:48:33.891Z,745.82
2016-09-01T08:49:33.875Z,745.81
2016-09-01T08:50:33.865Z,745.83
2016-09-01T08:51:33.855Z,745.81
2016-09-01T08:52:33.845Z,745.92
2016-09-01T08:53:33.843Z,745.86
2016-09-01T08:54:33.828Z,745.79
2016-09-01T08:55:33.818Z,745.88
2016-09-01T08:56:33.808Z,745.86
2016-09-01T08:57:33.805Z,745.9
2016-09-01T08:58:33.794Z,745.86
2016-09-01T08:59:33.797Z,745.85
2016-09-01T09:00:33.776Z,745.83
2016-09-01T09:01:33.766Z,745.85
2016-09-01T09:02:33.748Z,745.88
2016-09-01T09:03:33.740Z,745.85
2016-09-01T09:04:33.731Z,745.88
2016-09-01T09:05:33.722Z,745.87
2016-09-01T09:06:33.713Z,745.84
2016-09-01T09:07:33.710Z,745.88
2016-09-01T09:08:33.701Z,745.89
2016-09-01T09:09:33.684Z,745.9
2016-09-01T09:10:33.685Z,745.91
2016-09-01T09:11:33.667Z,745.91
2016-09-01T09:12:33.665Z,745.92
2016-09-01T09:13:33.655Z,745.93
2016-09-01T09:14:33.647Z,745.94
2016-09-01T09:15:33.639Z,745.96
2016-09-01T09:16:33.630Z,745.9
2016-09-01T09:17:33.614Z,745.91
2016-09-01T09:18:33.604Z,745.9
2016-09-01T09:19:33.604Z,745.92
2016-09-01T09:20:33.594Z,745.92
2016-09-01T09:21:33.587Z,745.9
2016-09-01T09:22:33.572Z,745.91
2016-09-01T09:23:33.570Z,745.9
2016-09-01T09:24:33.561Z,745.92
2016-09-01T09:25:33.553Z,745.92
2016-09-01T09:26:33.539Z,745.91
2016-09-01T09:27:33.531Z,745.95
2016-09-01T09:28:33.530Z,745.93
2016-09-01T09:29:33.523Z,745.88
2016-09-01T09:30:33.515Z,745.96
2016-09-01T09:31:33.500Z,745.94
2016-09-01T09:32:33.499Z,745.92
2016-09-01T09:33:33.491Z,745.95
2016-09-01T09:34:33.477Z,745.92
2016-09-01T09:35:33.470Z,745.93
2016-09-01T09:36:33.461Z,745.93
2016-09-01T09:37:33.460Z,745.91
2016-09-01T09:38:33.444Z,745.92
2016-09-01T09:39:33.437Z,745.92
2016-09-01T09:40:33.480Z,745.92
2016-09-01T09:41:33.424Z,745.89
2016-09-01T09:42:33.421Z,745.91
2016-09-01T09:43:33.414Z,745.92
2016-09-01T09:44:33.401Z,745.91
2016-09-01T09:45:33.399Z,745.92
2016-09-01T09:46:33.392Z,745.94
2016-09-01T09:47:33.393Z,745.91
2016-09-01T09:48:33.376Z,745.9
2016-09-01T09:49:33.362Z,745.92
2016-09-01T09:50:33.354Z,745.94
2016-09-01T09:51:33.353Z,745.92
2016-09-01T09:52:33.349Z,745.89
2016-09-01T09:53:33.332Z,745.88
2016-09-01T09:54:33.331Z,745.9
2016-09-01T09:55:33.319Z,745.89
2016-09-01T09:56:33.318Z,745.9
2016-09-01T09:57:33.303Z,745.92
2016-09-01T09:58:33.296Z,745.91
2016-09-01T09:59:33.295Z,745.91
2016-09-01T10:00:33.288Z,745.91
2016-09-01T10:01:33.274Z,745.87
2016-09-01T10:02:33.265Z,745.89
2016-09-01T10:03:33.273Z,745.93
2016-09-01T10:04:33.250Z,745.93
2016-09-01T10:05:33.243Z,745.91
2016-09-01T10:06:33.236Z,745.9
2016-09-01T10:07:33.229Z,745.99
2016-09-01T10:08:33.220Z,745.95
2016-09-01T10:09:33.212Z,745.91
2016-09-01T10:10:33.213Z,745.94
2016-09-01T10:11:33.197Z,745.92
2016-09-01T10:12:33.190Z,745.91
2016-09-01T10:13:33.190Z,745.92
2016-09-01T10:14:33.183Z,745.97
2016-09-01T10:15:33.169Z,745.99
2016-09-01T10:16:33.162Z,745.99
2016-09-01T10:17:33.154Z,745.94
2016-09-01T10:18:33.155Z,745.95
2016-09-01T10:19:33.146Z,745.96
2016-09-01T10:20:33.138Z,745.9
2016-09-01T10:21:33.131Z,745.87
2016-09-01T10:22:33.124Z,745.89
2016-09-01T10:23:33.116Z,745.85
2016-09-01T10:24:33.109Z,745.84
2016-09-01T10:25:33.094Z,745.83
2016-09-01T10:26:33.088Z,745.84
2016-09-01T10:27:33.080Z,745.85
2016-09-01T10:28:33.079Z,745.87
2016-09-01T10:29:33.066Z,745.88
2016-09-01T10:30:33.057Z,745.84
2016-09-01T10:31:33.057Z,745.82
2016-09-01T10:32:33.044Z,745.83
2016-09-01T10:33:33.040Z,745.85
2016-09-01T10:34:33.028Z,745.78
2016-09-01T10:35:33.027Z,745.78
2016-09-01T10:36:33.013Z,745.77
2016-09-01T10:37:33.010Z,745.75
2016-09-01T10:38:33.002Z,745.87
2016-09-01T10:39:32.995Z,745.85
2016-09-01T10:40:32.988Z,745.8
2016-09-01T10:41:32.988Z,745.91
2016-09-01T10:42:32.970Z,745.86
2016-09-01T10:43:32.963Z,745.88
2016-09-01T10:44:32.947Z,745.9
2016-09-01T10:45:32.946Z,745.87
2016-09-01T10:46:32.929Z,745.89
2016-09-01T10:47:32.922Z,745.82
2016-09-01T10:48:32.913Z,745.83
2016-09-01T10:49:32.904Z,745.84
2016-09-01T10:50:32.919Z,745.85
2016-09-01T10:51:32.888Z,745.82
2016-09-01T10:52:32.885Z,745.83
2016-09-01T10:53:32.878Z,745.8
2016-09-01T10:54:32.863Z,745.82
2016-09-01T10:55:32.861Z,745.8
2016-09-01T10:56:32.847Z,745.8
2016-09-01T10:57:32.837Z,745.8
2016-09-01T10:58:32.838Z,745.78
2016-09-01T10:59:32.822Z,745.77
2016-09-01T11:00:32.814Z,745.82
2016-09-01T11:01:32.813Z,745.76
2016-09-01T11:02:32.805Z,745.82
2016-09-01T11:03:32.797Z,745.84
2016-09-01T11:04:32.790Z,745.8
2016-09-01T11:05:32.782Z,745.85
2016-09-01T11:06:32.767Z,745.88
2016-09-01T11:07:32.766Z,745.89
2016-09-01T11:08:32.751Z,745.86
2016-09-01T11:09:32.750Z,745.87
2016-09-01T11:10:32.737Z,745.82
2016-09-01T11:11:32.727Z,745.83
2016-09-01T11:12:32.727Z,745.87
2016-09-01T11:13:32.713Z,745.84
2016-09-01T11:14:32.706Z,745.81
2016-09-01T11:15:32.705Z,745.82
2016-09-01T11:16:32.691Z,745.76
2016-09-01T11:17:32.684Z,745.79
2016-09-01T11:18:32.676Z,745.8
2016-09-01T11:19:32.675Z,745.85
2016-09-01T11:20:32.668Z,745.88
2016-09-01T11:21:32.660Z,745.86
2016-09-01T11:22:32.646Z,745.81
2016-09-01T11:23:32.708Z,745.83
2016-09-01T11:24:32.637Z,745.84
2016-09-01T11:25:32.631Z,745.82
2016-09-01T11:26:32.617Z,745.8
2016-09-01T11:27:32.616Z,745.75
2016-09-01T11:28:32.609Z,745.71
2016-09-01T11:29:32.603Z,745.71
2016-09-01T11:30:32.589Z,745.69
2016-09-01T11:31:32.583Z,745.67
2016-09-01T11:32:32.582Z,745.66
2016-09-01T11:33:32.568Z,745.64
2016-09-01T11:34:32.569Z,745.72
2016-09-01T11:35:32.554Z,745.77
2016-09-01T11:36:32.546Z,745.77
2016-09-01T11:37:32.547Z,745.75
2016-09-01T11:38:32.541Z,745.7
2016-09-01T11:39:32.533Z,745.77
2016-09-01T11:40:32.526Z,745.77
2016-09-01T11:41:32.518Z,745.78
2016-09-01T11:42:32.511Z,745.77
2016-09-01T11:43:32.497Z,745.73
2016-09-01T11:44:32.496Z,745.76
2016-09-01T11:45:32.488Z,745.8
2016-09-01T11:46:32.481Z,745.77
2016-09-01T11:47:32.473Z,745.73
2016-09-01T11:48:32.459Z,745.76
2016-09-01T11:49:32.451Z,745.71
2016-09-01T11:50:32.443Z,745.79
2016-09-01T11:51:32.444Z,745.75
2016-09-01T11:52:32.437Z,745.79
2016-09-01T11:53:32.430Z,745.77
2016-09-01T11:54:32.416Z,745.71
2016-09-01T11:55:32.410Z,745.75
2016-09-01T11:56:32.403Z,745.81
2016-09-01T11:57:32.403Z,745.76
2016-09-01T11:58:32.388Z,745.72
2016-09-01T11:59:32.390Z,745.78
2016-09-01T12:00:32.382Z,745.78
2016-09-01T12:01:32.369Z,745.72
2016-09-01T12:02:32.363Z,745.83
2016-09-01T12:03:32.363Z,745.82
2016-09-01T12:04:32.349Z,745.78
2016-09-01T12:05:32.349Z,745.76
2016-09-01T12:06:32.335Z,745.71
2016-09-01T12:07:32.329Z,745.73
2016-09-01T12:08:32.324Z,745.73
2016-09-01T12:09:32.316Z,745.7
2016-09-01T12:10:32.311Z,745.7
2016-09-01T12:11:32.305Z,745.7
2016-09-01T12:12:32.297Z,745.66
2016-09-01T12:13:32.291Z,745.68
2016-09-01T12:14:32.286Z,745.65
2016-09-01T12:15:32.284Z,745.64
2016-09-01T12:16:32.271Z,745.66
2016-09-01T12:17:32.264Z,745.63
2016-09-01T12:18:32.265Z,745.61
2016-09-01T12:19:32.257Z,745.63
2016-09-01T12:20:32.250Z,745.65
2016-09-01T12:21:32.237Z,745.66
2016-09-01T12:22:32.241Z,745.66
2016-09-01T12:23:32.228Z,745.61
2016-09-01T12:24:32.216Z,745.64
2016-09-01T12:25:32.207Z,745.64
2016-09-01T12:26:32.200Z,745.59
2016-09-01T12:27:32.198Z,745.65
2016-09-01T12:28:32.185Z,745.64
2016-09-01T12:29:32.178Z,745.63
2016-09-01T12:30:32.170Z,745.62
2016-09-01T12:31:32.161Z,745.51